Duluth, Kansas
Current Conditions -  °F | °C
As of 2:52 PM on Tuesday 21 Oct 2014 (Local Time) from KMHK Reporting Station
Clear Clear  
Wind Chill: 78°   Ceiling: Unl
Heat Index: 78°   Visibility: 10mi
Dew Point: 46°   Wind: 10mph
Humidity: 32%   Direction: 170°S
Pressure: 30.04"   Gusts: NA
Location:  39.4299°N, 96.1804°W
Report Text: KMHK 211952Z 17009KT 10SM CLR 26/08 A3004 RMK AO2 SLP169 T02560078
Loading
Personal Weather Stations






























Interactive Weather Map
Tropical Storm Tracking
New forecast layout! Learn more

10-Day Weather Forecast

Advertisements
Track Severe Weather on mobile